Time;durP1;ratioP1;P1;durP2;ratioP2;P2;SDS_P1;SDS_P2;PMS_P1;PMS_P2;Temp;Humidity;BMP_temperature;BMP_pressure;BME280_temperature;BME280_humidity;BME280_pressure;Samples;Min_cycle;Max_cycle;Signal;HPM_P1;HPM_P2
2021/04/25 00:01:33;;;;;;;14.27;9.68;;;12.50;99.90;;;;;;5003359;28;20396;-77
2021/04/25 00:03:59;;;;;;;13.77;10.50;;;12.40;99.90;;;;;;5001835;28;20048;-77
2021/04/25 00:06:25;;;;;;;18.02;12.60;;;12.40;99.90;;;;;;5000904;28;20475;-76
2021/04/25 00:08:51;;;;;;;11.73;10.20;;;12.40;99.90;;;;;;5012760;28;20022;-77
2021/04/25 00:11:17;;;;;;;11.23;9.90;;;12.30;99.90;;;;;;5006559;28;20482;-76
2021/04/25 00:13:47;;;;;;;13.02;11.00;;;12.30;99.90;;;;;;5007561;28;20026;-76
2021/04/25 00:16:14;;;;;;;12.82;11.48;;;12.20;99.90;;;;;;5009601;28;20026;-77
2021/04/25 00:18:41;;;;;;;11.77;10.13;;;12.10;99.90;;;;;;5005095;28;20345;-76
2021/04/25 00:21:07;;;;;;;12.18;10.93;;;12.10;99.90;;;;;;4991682;28;20033;-77
2021/04/25 00:23:33;;;;;;;15.30;10.93;;;12.20;99.90;;;;;;5004885;28;20126;-78
2021/04/25 00:25:59;;;;;;;11.75;10.55;;;12.20;99.90;;;;;;5003052;28;20100;-78
2021/04/25 00:28:25;;;;;;;11.18;10.00;;;12.20;99.90;;;;;;5007053;28;20500;-77
2021/04/25 00:30:51;;;;;;;16.60;11.57;;;12.20;99.90;;;;;;5001684;28;20412;-78
2021/04/25 00:33:16;;;;;;;11.75;10.57;;;12.20;99.90;;;;;;5008688;28;20101;-77
2021/04/25 00:35:43;;;;;;;10.52;9.38;;;12.10;99.90;;;;;;5006550;28;20084;-76
2021/04/25 00:38:09;;;;;;;11.50;10.27;;;12.10;99.90;;;;;;5009206;28;20014;-76
2021/04/25 00:40:35;;;;;;;13.63;10.10;;;12.10;99.90;;;;;;5009818;28;20028;-77
2021/04/25 00:43:01;;;;;;;15.73;11.52;;;12.00;99.90;;;;;;4996327;28;20045;-77
2021/04/25 00:45:27;;;;;;;13.52;10.55;;;12.00;99.90;;;;;;5018749;28;20014;-77
2021/04/25 00:47:53;;;;;;;10.90;9.82;;;11.90;99.90;;;;;;5016744;28;20042;-76
2021/04/25 00:50:24;;;;;;;11.77;10.60;;;11.90;99.90;;;;;;5000700;28;20037;-77
2021/04/25 00:52:50;;;;;;;13.37;11.93;;;11.90;99.90;;;;;;5008826;28;20026;-76
2021/04/25 00:55:17;;;;;;;14.00;12.13;;;11.80;99.90;;;;;;5006033;28;20029;-76
2021/04/25 00:57:44;;;;;;;15.13;11.20;;;11.80;99.90;;;;;;5011270;28;20041;-77
2021/04/25 01:00:12;;;;;;;13.48;11.77;;;11.80;99.90;;;;;;5004858;28;20036;-77
2021/04/25 01:02:39;;;;;;;13.38;11.43;;;11.90;99.90;;;;;;5007421;28;20029;-77
2021/04/25 01:05:07;;;;;;;12.25;11.10;;;12.00;99.90;;;;;;5007626;28;20049;-77
2021/04/25 01:07:33;;;;;;;15.68;11.27;;;12.00;99.90;;;;;;5005581;28;20030;-76
2021/04/25 01:09:59;;;;;;;13.55;11.00;;;12.00;99.90;;;;;;5008723;28;20041;-76
2021/04/25 01:12:25;;;;;;;14.05;11.93;;;12.00;99.90;;;;;;5009070;28;20029;-76
2021/04/25 01:14:51;;;;;;;14.63;12.65;;;12.00;99.90;;;;;;5010157;28;20022;-76
2021/04/25 01:17:17;;;;;;;12.82;11.52;;;11.90;99.90;;;;;;5008239;28;20033;-76
2021/04/25 01:19:43;;;;;;;16.77;12.50;;;11.90;99.90;;;;;;5004443;28;20070;-76
2021/04/25 01:22:12;;;;;;;14.27;11.60;;;11.90;99.90;;;;;;5006944;28;20049;-76
2021/04/25 01:24:38;;;;;;;15.95;12.20;;;11.80;99.90;;;;;;5011652;28;20092;-76
2021/04/25 01:27:04;;;;;;;16.27;12.30;;;11.80;99.90;;;;;;5009318;28;20034;-77
2021/04/25 01:29:29;;;;;;;13.57;11.63;;;11.90;99.90;;;;;;5008974;28;20061;-76
2021/04/25 01:31:55;;;;;;;14.10;12.45;;;11.90;99.90;;;;;;4999946;28;20054;-76
2021/04/25 01:34:21;;;;;;;16.83;11.68;;;11.90;99.90;;;;;;5011509;28;20044;-76
2021/04/25 01:36:47;;;;;;;17.63;12.55;;;11.90;99.90;;;;;;5008654;28;20416;-76
2021/04/25 01:39:13;;;;;;;12.95;11.63;;;11.80;99.90;;;;;;5010570;28;20025;-77
2021/04/25 01:41:39;;;;;;;12.75;11.30;;;11.80;99.90;;;;;;5002194;28;20112;-77
2021/04/25 01:44:04;;;;;;;13.55;12.10;;;11.90;99.90;;;;;;5006914;28;20033;-77
2021/04/25 01:46:30;;;;;;;12.65;11.35;;;11.80;99.90;;;;;;5000858;28;20034;-76
2021/04/25 01:48:56;;;;;;;13.90;11.80;;;11.70;99.90;;;;;;5001542;28;20045;-76
2021/04/25 01:51:22;;;;;;;13.65;12.35;;;11.80;99.90;;;;;;5001355;28;20026;-77
2021/04/25 01:53:47;;;;;;;20.25;14.05;;;11.70;99.90;;;;;;5011338;28;20022;-77
2021/04/25 01:56:13;;;;;;;15.48;12.73;;;11.70;99.90;;;;;;5009395;28;20112;-78
2021/04/25 01:58:39;;;;;;;18.13;13.73;;;11.70;99.90;;;;;;5009150;28;20026;-76
2021/04/25 02:01:05;;;;;;;17.08;12.65;;;11.70;99.90;;;;;;5000769;28;20027;-76
2021/04/25 02:03:31;;;;;;;20.48;13.55;;;11.70;99.90;;;;;;5009231;28;20066;-77
2021/04/25 02:05:57;;;;;;;13.23;11.88;;;11.70;99.90;;;;;;4983756;28;20451;-76
2021/04/25 02:08:23;;;;;;;18.13;12.30;;;11.70;99.90;;;;;;5003122;28;20053;-77
2021/04/25 02:10:52;;;;;;;14.48;13.07;;;11.70;99.90;;;;;;4998994;28;20018;-77
2021/04/25 02:13:18;;;;;;;16.27;14.32;;;11.70;99.90;;;;;;5009995;28;20033;-77
2021/04/25 02:15:44;;;;;;;24.60;12.75;;;11.60;99.90;;;;;;5008939;28;20029;-77
2021/04/25 02:18:11;;;;;;;13.55;12.20;;;11.60;99.90;;;;;;5007595;28;20018;-77
2021/04/25 02:20:38;;;;;;;17.60;13.38;;;11.70;99.90;;;;;;5003193;28;20112;-77
2021/04/25 02:23:03;;;;;;;14.32;12.90;;;11.70;99.90;;;;;;5009885;28;20104;-77
2021/04/25 02:25:29;;;;;;;14.88;13.35;;;11.70;99.90;;;;;;5009913;28;20473;-77
2021/04/25 02:27:56;;;;;;;17.40;13.15;;;11.70;99.90;;;;;;5009343;28;20057;-78
2021/04/25 02:30:35;;;;;;;14.15;12.30;;;11.70;99.90;;;;;;5005020;28;20076;-77
2021/04/25 02:33:01;;;;;;;16.25;12.95;;;11.70;99.90;;;;;;4980908;28;20037;-76
2021/04/25 02:35:28;;;;;;;15.13;13.45;;;11.70;99.90;;;;;;5001597;28;20049;-77
2021/04/25 02:37:55;;;;;;;17.67;12.63;;;11.70;99.90;;;;;;5010580;28;20037;-76
2021/04/25 02:40:23;;;;;;;16.65;14.00;;;11.70;99.90;;;;;;4986820;28;20034;-76
2021/04/25 02:42:49;;;;;;;16.15;12.23;;;11.70;99.90;;;;;;5007561;28;20030;-76
2021/04/25 02:45:16;;;;;;;17.17;13.13;;;11.70;99.90;;;;;;5003107;28;20927;-77
2021/04/25 02:47:56;;;;;;;20.50;13.23;;;11.70;99.90;;;;;;5005939;28;20030;-76
2021/04/25 02:50:25;;;;;;;14.65;13.07;;;11.60;99.90;;;;;;4999202;28;20057;-77
2021/04/25 02:52:51;;;;;;;13.88;12.57;;;11.70;99.90;;;;;;5003389;28;20109;-77
2021/04/25 02:55:17;;;;;;;18.45;13.25;;;11.60;99.90;;;;;;5009438;28;20098;-77
2021/04/25 02:57:43;;;;;;;19.60;11.98;;;11.60;99.90;;;;;;5008950;28;20022;-77
2021/04/25 03:00:13;;;;;;;14.27;12.68;;;11.50;99.90;;;;;;5004622;28;20587;-77
2021/04/25 03:02:38;;;;;;;18.00;14.00;;;11.40;99.90;;;;;;5000417;28;20029;-77
2021/04/25 03:05:06;;;;;;;18.67;12.13;;;11.40;99.90;;;;;;5003257;28;20030;-77
2021/04/25 03:07:31;;;;;;;18.83;14.27;;;11.40;99.90;;;;;;5008847;28;20033;-77
2021/04/25 03:09:57;;;;;;;14.27;12.80;;;11.30;99.90;;;;;;4988545;28;20030;-77
2021/04/25 03:12:23;;;;;;;19.23;12.50;;;11.40;99.90;;;;;;5004697;28;21771;-76
2021/04/25 03:14:49;;;;;;;22.88;15.45;;;11.30;99.90;;;;;;5007112;28;20026;-77
2021/04/25 03:17:14;;;;;;;15.50;13.23;;;11.30;99.90;;;;;;5006339;28;20495;-77
2021/04/25 03:19:40;;;;;;;19.50;12.60;;;11.30;99.90;;;;;;5000536;28;20022;-77
2021/04/25 03:22:06;;;;;;;14.68;12.65;;;11.30;99.90;;;;;;5003021;28;20103;-77
2021/04/25 03:24:31;;;;;;;13.05;11.82;;;11.30;99.90;;;;;;5006193;28;20030;-76
2021/04/25 03:26:59;;;;;;;23.42;13.23;;;11.20;99.90;;;;;;5007415;28;20038;-76
2021/04/25 03:29:24;;;;;;;20.20;14.85;;;11.20;99.90;;;;;;5006725;28;20021;-76
2021/04/25 03:31:50;;;;;;;13.65;12.27;;;11.20;99.90;;;;;;5005734;28;20369;-76
2021/04/25 03:34:16;;;;;;;14.25;12.75;;;11.20;99.90;;;;;;5005955;28;20021;-77
2021/04/25 03:36:41;;;;;;;19.40;13.82;;;11.20;99.90;;;;;;5002543;28;20506;-76
2021/04/25 03:39:07;;;;;;;18.25;14.90;;;11.10;99.90;;;;;;5012550;28;20022;-77
2021/04/25 03:41:33;;;;;;;17.70;12.43;;;11.10;99.90;;;;;;5005281;28;20488;-76
2021/04/25 03:43:59;;;;;;;16.85;13.52;;;11.10;99.90;;;;;;5008803;28;20428;-77
2021/04/25 03:46:25;;;;;;;13.60;12.20;;;11.10;99.90;;;;;;5008907;28;20081;-77
2021/04/25 03:48:51;;;;;;;14.85;13.40;;;11.20;99.90;;;;;;5009038;28;20392;-77
2021/04/25 03:51:16;;;;;;;15.32;13.40;;;11.30;99.90;;;;;;5006740;28;20088;-78
2021/04/25 03:53:42;;;;;;;16.95;13.05;;;11.30;99.90;;;;;;5007460;28;20112;-76
2021/04/25 03:56:08;;;;;;;15.45;13.32;;;11.20;99.90;;;;;;5007362;28;20025;-77
2021/04/25 03:58:33;;;;;;;15.25;12.95;;;11.20;99.90;;;;;;5013537;28;20026;-77
2021/04/25 04:00:59;;;;;;;17.65;13.73;;;11.10;99.90;;;;;;5001718;28;20018;-77
2021/04/25 04:03:25;;;;;;;15.35;13.90;;;11.00;99.90;;;;;;5010386;28;20030;-77
2021/04/25 04:05:51;;;;;;;16.02;13.45;;;11.00;99.90;;;;;;5012353;28;20025;-77
2021/04/25 04:08:16;;;;;;;19.75;12.73;;;10.90;99.90;;;;;;5011903;28;20022;-76
2021/04/25 04:10:42;;;;;;;14.68;13.15;;;10.90;99.90;;;;;;5007123;28;20117;-76
2021/04/25 04:13:08;;;;;;;15.50;13.23;;;10.90;99.90;;;;;;5007862;28;20064;-76
2021/04/25 04:15:33;;;;;;;15.35;13.75;;;10.90;99.90;;;;;;5012711;28;20026;-77
2021/04/25 04:17:59;;;;;;;15.15;13.65;;;10.80;99.90;;;;;;5006732;28;20056;-77
2021/04/25 04:20:25;;;;;;;23.10;13.43;;;10.80;99.90;;;;;;5010347;28;20495;-77
2021/04/25 04:22:51;;;;;;;16.40;14.65;;;10.90;99.90;;;;;;5004863;28;20030;-77
2021/04/25 04:25:17;;;;;;;16.65;14.55;;;11.00;99.90;;;;;;5011010;28;20337;-77
2021/04/25 04:27:42;;;;;;;14.98;13.48;;;11.10;99.90;;;;;;4984905;28;20408;-77
2021/04/25 04:30:09;;;;;;;16.83;14.02;;;11.10;99.90;;;;;;5009019;28;20468;-77
2021/04/25 04:32:35;;;;;;;18.95;14.13;;;11.10;99.90;;;;;;4994563;28;20022;-77
2021/04/25 04:35:01;;;;;;;15.80;14.05;;;11.20;99.90;;;;;;5005412;28;20361;-76
2021/04/25 04:37:26;;;;;;;20.67;16.02;;;11.20;99.90;;;;;;5012643;28;20389;-77
2021/04/25 04:39:52;;;;;;;19.27;14.82;;;11.20;99.90;;;;;;5006343;28;20022;-76
2021/04/25 04:42:18;;;;;;;16.95;15.18;;;11.30;99.90;;;;;;5011279;28;20033;-76
2021/04/25 04:44:44;;;;;;;18.10;14.68;;;11.30;99.90;;;;;;4989073;28;20510;-75
2021/04/25 04:47:10;;;;;;;14.98;13.32;;;11.40;99.90;;;;;;5012002;28;20076;-76
2021/04/25 04:49:35;;;;;;;17.30;14.80;;;11.50;99.90;;;;;;5007421;28;20037;-76
2021/04/25 04:52:03;;;;;;;19.63;15.02;;;11.40;99.90;;;;;;5007501;28;20065;-77
2021/04/25 04:54:28;;;;;;;23.40;12.98;;;11.50;99.90;;;;;;5010653;28;20022;-77
2021/04/25 04:56:54;;;;;;;19.55;13.43;;;11.40;99.90;;;;;;5012062;28;20025;-77
2021/04/25 04:59:20;;;;;;;15.98;13.00;;;11.50;99.90;;;;;;5003727;28;20022;-77
2021/04/25 05:01:46;;;;;;;15.30;13.38;;;11.50;99.90;;;;;;5005889;28;20029;-77
2021/04/25 05:04:11;;;;;;;20.50;12.70;;;11.50;99.90;;;;;;5005128;28;20057;-77
2021/04/25 05:06:37;;;;;;;14.75;12.27;;;11.60;99.90;;;;;;5006230;28;20053;-77
2021/04/25 05:09:03;;;;;;;18.00;12.52;;;11.70;99.90;;;;;;5007292;28;20077;-77
2021/04/25 05:11:29;;;;;;;16.40;13.70;;;11.70;99.90;;;;;;5009033;28;20105;-77
2021/04/25 05:13:54;;;;;;;17.90;13.65;;;11.80;99.90;;;;;;5005337;28;20114;-77
2021/04/25 05:16:20;;;;;;;13.63;12.25;;;11.90;99.90;;;;;;5006065;28;20492;-76
2021/04/25 05:18:46;;;;;;;14.38;12.93;;;12.10;99.90;;;;;;5003137;28;20097;-76
2021/04/25 05:21:12;;;;;;;15.52;12.75;;;12.10;99.90;;;;;;5010030;28;20025;-78
2021/04/25 05:23:38;;;;;;;16.83;13.32;;;12.20;99.90;;;;;;4986297;28;20057;-77
2021/04/25 05:26:05;;;;;;;19.23;12.60;;;12.30;99.90;;;;;;5006973;28;20030;-77
2021/04/25 05:28:31;;;;;;;14.75;13.20;;;12.40;99.90;;;;;;5010814;28;20025;-76
2021/04/25 05:30:58;;;;;;;19.17;12.45;;;12.30;99.90;;;;;;4978758;28;20027;-78
2021/04/25 05:33:24;;;;;;;16.52;13.90;;;12.40;99.90;;;;;;5009368;28;20034;-77
2021/04/25 05:35:50;;;;;;;18.48;13.80;;;12.50;99.90;;;;;;5007636;28;20400;-77
2021/04/25 05:38:15;;;;;;;19.40;11.88;;;12.50;99.90;;;;;;5011696;28;20018;-79
2021/04/25 05:40:41;;;;;;;13.30;11.25;;;12.60;99.90;;;;;;5003876;28;20018;-76
2021/04/25 05:43:07;;;;;;;16.70;12.90;;;12.50;99.90;;;;;;5010482;28;20040;-78
2021/04/25 05:45:34;;;;;;;14.93;13.32;;;12.50;99.90;;;;;;5001886;28;20030;-78
2021/04/25 05:47:59;;;;;;;14.93;12.77;;;12.70;99.90;;;;;;5010675;28;20315;-76
2021/04/25 05:50:28;;;;;;;17.55;14.20;;;12.90;99.90;;;;;;5009149;28;20041;-76
2021/04/25 05:52:54;;;;;;;15.57;12.77;;;13.00;99.90;;;;;;5013799;28;20033;-76
2021/04/25 05:55:20;;;;;;;13.13;11.82;;;13.10;99.90;;;;;;5011419;28;20022;-77
2021/04/25 05:57:46;;;;;;;18.05;13.30;;;13.30;99.90;;;;;;5003788;28;20023;-78
2021/04/25 06:00:16;;;;;;;15.00;12.48;;;13.40;99.90;;;;;;4989302;28;20590;-77
2021/04/25 06:02:42;;;;;;;14.20;11.68;;;13.50;99.90;;;;;;5003544;28;20021;-77
2021/04/25 06:05:09;;;;;;;11.27;10.20;;;13.60;99.90;;;;;;5006732;28;20483;-78
2021/04/25 06:07:34;;;;;;;20.10;10.90;;;13.80;99.90;;;;;;5008312;28;20097;-77
2021/04/25 06:10:00;;;;;;;16.60;9.88;;;13.90;99.90;;;;;;5001613;28;20625;-78
2021/04/25 06:12:26;;;;;;;16.27;10.27;;;13.90;99.90;;;;;;5010811;28;20037;-78
2021/04/25 06:14:52;;;;;;;12.18;10.88;;;13.80;99.90;;;;;;5005174;28;20133;-77
2021/04/25 06:17:17;;;;;;;16.20;11.05;;;13.90;99.90;;;;;;5010466;28;20073;-77
2021/04/25 06:19:43;;;;;;;11.68;10.25;;;14.10;99.90;;;;;;5001585;28;20384;-77
2021/04/25 06:22:10;;;;;;;15.63;10.75;;;14.10;99.90;;;;;;5007042;28;20046;-77
2021/04/25 06:24:37;;;;;;;12.32;10.82;;;14.30;99.90;;;;;;5006346;28;20026;-77
2021/04/25 06:27:03;;;;;;;20.92;13.10;;;14.40;99.90;;;;;;5007234;28;20084;-77
2021/04/25 06:29:29;;;;;;;15.98;11.98;;;14.50;99.90;;;;;;5006944;28;20058;-77
2021/04/25 06:31:56;;;;;;;11.90;9.05;;;14.50;99.90;;;;;;5001789;28;20030;-75
2021/04/25 06:34:22;;;;;;;15.20;10.48;;;14.60;99.90;;;;;;5010272;28;20476;-77
2021/04/25 06:36:48;;;;;;;13.40;9.52;;;14.60;99.90;;;;;;5008841;28;20068;-77
2021/04/25 06:39:14;;;;;;;14.57;8.18;;;14.70;99.90;;;;;;5008490;28;20026;-78
2021/04/25 06:41:39;;;;;;;12.73;9.48;;;14.90;99.90;;;;;;5002371;28;20528;-77
2021/04/25 06:44:06;;;;;;;16.13;9.43;;;15.00;99.90;;;;;;4986031;28;20042;-78
2021/04/25 06:46:31;;;;;;;10.57;9.65;;;15.10;99.90;;;;;;5001781;28;20028;-77
2021/04/25 06:48:57;;;;;;;11.90;10.70;;;15.20;99.90;;;;;;5008587;28;20113;-77
2021/04/25 06:51:23;;;;;;;12.90;10.10;;;15.20;99.90;;;;;;4991945;28;20114;-78
2021/04/25 06:53:49;;;;;;;15.70;10.10;;;15.40;99.90;;;;;;5005554;28;20022;-77
2021/04/25 06:56:15;;;;;;;12.43;10.80;;;15.50;99.90;;;;;;5011468;28;20101;-77
2021/04/25 06:58:41;;;;;;;15.40;10.63;;;15.50;99.90;;;;;;5012416;28;20037;-78
2021/04/25 07:01:08;;;;;;;23.98;12.50;;;15.60;99.90;;;;;;4984720;28;20041;-77
2021/04/25 07:03:34;;;;;;;22.40;11.98;;;15.60;99.90;;;;;;5007226;28;20025;-77
2021/04/25 07:05:59;;;;;;;22.17;12.63;;;15.70;99.90;;;;;;5010585;28;20608;-78
2021/04/25 07:08:25;;;;;;;17.27;12.63;;;15.60;99.90;;;;;;4996323;28;20032;-78
2021/04/25 07:10:55;;;;;;;17.60;13.00;;;15.50;99.90;;;;;;5012752;28;20026;-77
2021/04/25 07:13:21;;;;;;;18.58;13.15;;;15.40;99.90;;;;;;5007678;28;20030;-78
2021/04/25 07:15:47;;;;;;;18.63;14.30;;;15.40;99.90;;;;;;5000120;28;20050;-78
2021/04/25 07:18:13;;;;;;;15.15;13.60;;;15.40;99.90;;;;;;5015984;28;20033;-78
2021/04/25 07:20:40;;;;;;;21.83;12.63;;;15.40;99.90;;;;;;4999801;28;20033;-74
2021/04/25 07:23:06;;;;;;;14.27;12.82;;;15.50;99.90;;;;;;5013121;28;20089;-67
2021/04/25 07:25:32;;;;;;;23.50;14.20;;;15.50;99.90;;;;;;5012644;28;20053;-66
2021/04/25 07:27:58;;;;;;;17.48;14.00;;;15.60;99.90;;;;;;5007465;28;20077;-67
2021/04/25 07:30:24;;;;;;;13.70;12.38;;;15.70;99.90;;;;;;5013880;28;20033;-69
2021/04/25 07:32:50;;;;;;;17.25;12.75;;;15.90;99.90;;;;;;5012908;28;20026;-66
2021/04/25 07:35:16;;;;;;;15.23;13.75;;;16.00;99.90;;;;;;5013767;28;20029;-66
2021/04/25 07:37:43;;;;;;;18.48;14.98;;;16.10;99.90;;;;;;5012815;28;20097;-66
2021/04/25 07:40:10;;;;;;;22.65;16.40;;;16.20;99.90;;;;;;5009612;28;20034;-68
2021/04/25 07:42:38;;;;;;;15.20;13.60;;;16.20;99.90;;;;;;5010558;28;20479;-68
2021/04/25 07:45:07;;;;;;;17.60;14.32;;;16.10;99.90;;;;;;5014065;28;20030;-66
2021/04/25 07:47:33;;;;;;;17.73;15.82;;;16.10;99.90;;;;;;5012800;28;20033;-67
2021/04/25 07:49:59;;;;;;;19.52;15.05;;;16.00;99.90;;;;;;5013692;28;20037;-67
2021/04/25 07:52:25;;;;;;;22.20;17.67;;;16.00;99.90;;;;;;5002315;28;20041;-67
2021/04/25 07:54:50;;;;;;;22.38;18.70;;;15.90;99.90;;;;;;5001078;28;20030;-70
2021/04/25 07:57:16;;;;;;;26.17;18.00;;;15.80;99.90;;;;;;5013306;28;20034;-67
2021/04/25 07:59:42;;;;;;;25.95;18.48;;;15.80;99.90;;;;;;5013040;28;20372;-67
2021/04/25 08:02:08;;;;;;;25.50;18.77;;;15.90;99.90;;;;;;5009388;28;20032;-67
2021/04/25 08:04:34;;;;;;;20.25;18.10;;;16.00;99.90;;;;;;5012370;28;20105;-66
2021/04/25 08:07:00;;;;;;;21.65;18.48;;;16.10;99.90;;;;;;5008995;28;20037;-69
2021/04/25 08:09:26;;;;;;;22.65;20.10;;;16.10;99.90;;;;;;5006716;28;20038;-66
2021/04/25 08:11:54;;;;;;;23.33;20.92;;;16.20;99.90;;;;;;5011980;28;20092;-68
2021/04/25 08:14:20;;;;;;;17.92;15.55;;;16.20;99.90;;;;;;5005708;28;20431;-74
2021/04/25 08:16:46;;;;;;;21.90;19.63;;;16.20;99.90;;;;;;5013397;28;20018;-74
2021/04/25 08:19:12;;;;;;;21.90;19.95;;;16.20;99.90;;;;;;5005824;28;20110;-73
2021/04/25 08:21:37;;;;;;;25.60;17.80;;;16.10;99.90;;;;;;4987502;28;20030;-77
2021/04/25 08:24:04;;;;;;;20.40;18.23;;;16.10;99.90;;;;;;5010187;28;20037;-77
2021/04/25 08:26:29;;;;;;;19.08;17.25;;;16.20;99.90;;;;;;5005224;28;20037;-76
2021/04/25 08:28:55;;;;;;;24.80;17.52;;;16.10;99.90;;;;;;5013112;28;20029;-78
2021/04/25 08:31:21;;;;;;;19.77;17.52;;;16.10;99.90;;;;;;4977103;28;20030;-76
2021/04/25 08:33:47;;;;;;;20.52;17.23;;;16.00;99.90;;;;;;5008653;28;20045;-75
2021/04/25 08:36:14;;;;;;;17.77;14.90;;;16.10;99.90;;;;;;5008870;28;20449;-76
2021/04/25 08:38:41;;;;;;;19.42;15.32;;;16.20;99.90;;;;;;5009296;28;20014;-76
2021/04/25 08:41:09;;;;;;;16.85;14.77;;;16.20;99.90;;;;;;5009005;28;20495;-75
2021/04/25 08:43:36;;;;;;;15.20;13.70;;;16.30;99.90;;;;;;5013233;28;20022;-75
2021/04/25 08:46:02;;;;;;;20.48;15.75;;;16.40;99.90;;;;;;5012151;28;20030;-75
2021/04/25 08:48:29;;;;;;;18.35;15.23;;;16.50;99.90;;;;;;5012962;28;20053;-76
2021/04/25 08:50:56;;;;;;;21.63;17.23;;;16.60;99.90;;;;;;5007322;28;20033;-74
2021/04/25 08:53:22;;;;;;;19.92;16.83;;;16.60;99.90;;;;;;5010360;28;20025;-73
2021/04/25 08:55:48;;;;;;;19.95;17.48;;;16.60;99.90;;;;;;5012701;28;20018;-73
2021/04/25 08:58:15;;;;;;;22.00;16.77;;;16.40;99.90;;;;;;5006566;28;20048;-74
2021/04/25 09:00:41;;;;;;;18.48;16.33;;;16.40;99.90;;;;;;5010233;28;20431;-74
2021/04/25 09:03:06;;;;;;;18.52;16.80;;;16.50;99.90;;;;;;5011252;28;20033;-74
2021/04/25 09:05:32;;;;;;;23.95;18.77;;;16.50;99.90;;;;;;5001795;28;20021;-73
2021/04/25 09:08:00;;;;;;;20.60;16.25;;;16.40;99.90;;;;;;5012406;28;20384;-74
2021/04/25 09:10:36;;;;;;;19.73;17.77;;;16.50;99.90;;;;;;5011373;28;20038;-73
2021/04/25 09:13:15;;;;;;;18.98;16.98;;;16.50;99.90;;;;;;5007378;28;20045;-72
2021/04/25 09:15:41;;;;;;;20.75;18.58;;;16.50;99.90;;;;;;5002485;28;20105;-72
2021/04/25 09:18:07;;;;;;;23.73;16.38;;;16.50;99.90;;;;;;5010463;28;20064;-71
2021/04/25 09:20:43;;;;;;;18.23;16.42;;;16.60;99.90;;;;;;4988716;28;20030;-72
2021/04/25 09:23:11;;;;;;;16.63;14.80;;;16.80;99.90;;;;;;5010048;28;20026;-72
2021/04/25 09:25:38;;;;;;;20.13;13.43;;;16.90;99.90;;;;;;5011040;28;20056;-72
2021/04/25 09:28:15;;;;;;;16.17;14.18;;;17.00;99.90;;;;;;5011829;28;20029;-70
2021/04/25 09:30:57;;;;;;;21.98;16.73;;;17.10;99.90;;;;;;5000780;28;20031;-71
2021/04/25 09:33:27;;;;;;;29.35;17.02;;;17.10;99.90;;;;;;5003851;28;20083;-71
2021/04/25 09:35:57;;;;;;;30.77;16.98;;;17.10;99.90;;;;;;5006634;28;20034;-71
2021/04/25 09:38:24;;;;;;;16.92;15.02;;;17.10;99.90;;;;;;4979151;28;20021;-71
2021/04/25 09:40:51;;;;;;;22.25;17.27;;;17.10;99.90;;;;;;5009764;28;20216;-71
2021/04/25 09:43:19;;;;;;;16.55;14.98;;;17.00;99.90;;;;;;4992779;28;20045;-71
2021/04/25 09:45:57;;;;;;;22.50;18.02;;;17.10;99.90;;;;;;5001391;28;20691;-71
2021/04/25 09:48:33;;;;;;;15.70;14.20;;;17.30;99.90;;;;;;4987626;28;20045;-71
2021/04/25 09:51:17;;;;;;;19.75;15.60;;;17.30;99.90;;;;;;5009791;28;20030;-73
2021/04/25 09:53:43;;;;;;;16.42;14.70;;;17.30;99.90;;;;;;5010588;28;20033;-72
2021/04/25 09:56:10;;;;;;;22.50;17.75;;;17.30;99.90;;;;;;5007643;28;20114;-72
2021/04/25 09:58:57;;;;;;;23.60;18.85;;;17.30;99.90;;;;;;5002081;28;20491;-71
2021/04/25 10:01:30;;;;;;;21.17;17.95;;;17.20;99.90;;;;;;5004270;28;20025;-70
2021/04/25 10:03:57;;;;;;;17.65;15.57;;;17.30;99.90;;;;;;5011155;28;20013;-71
2021/04/25 10:06:24;;;;;;;20.05;17.30;;;17.10;99.90;;;;;;5001651;28;20034;-71
2021/04/25 10:08:50;;;;;;;22.73;16.67;;;17.10;99.90;;;;;;5011485;28;20057;-73
2021/04/25 10:11:18;;;;;;;21.23;19.05;;;17.10;99.90;;;;;;4983793;28;20026;-72
2021/04/25 10:13:46;;;;;;;19.73;17.15;;;17.10;99.90;;;;;;5009742;28;20018;-70
2021/04/25 10:16:16;;;;;;;26.30;18.90;;;17.10;99.90;;;;;;5010691;28;20636;-71
2021/04/25 10:18:42;;;;;;;23.45;17.33;;;17.10;99.90;;;;;;5008907;28;20041;-71
2021/04/25 10:21:08;;;;;;;23.50;17.25;;;17.10;99.90;;;;;;5009429;28;20431;-72
2021/04/25 10:23:34;;;;;;;19.60;17.55;;;17.20;99.90;;;;;;5010814;28;20534;-71
2021/04/25 10:26:01;;;;;;;21.42;17.83;;;17.40;99.90;;;;;;4989994;28;20022;-71
2021/04/25 10:28:26;;;;;;;24.92;19.27;;;17.40;99.90;;;;;;5003767;28;20037;-71
2021/04/25 10:31:05;;;;;;;24.63;17.17;;;17.50;99.90;;;;;;4986306;28;20026;-68
2021/04/25 10:34:05;;;;;;;16.23;14.50;;;17.50;99.90;;;;;;5009870;28;20048;-67
2021/04/25 10:36:50;;;;;;;16.55;14.75;;;17.60;99.90;;;;;;4967254;28;20038;-67
2021/04/25 10:39:44;;;;;;;17.17;13.77;;;17.40;99.90;;;;;;4989149;28;20033;-71
2021/04/25 10:42:20;;;;;;;20.65;15.75;;;17.40;99.90;;;;;;5007313;28;20025;-72
2021/04/25 10:44:58;;;;;;;23.55;14.15;;;17.50;99.90;;;;;;5015178;28;20050;-72
2021/04/25 10:47:37;;;;;;;27.70;16.27;;;17.50;99.90;;;;;;5009418;28;20030;-72
2021/04/25 10:50:10;;;;;;;18.88;14.38;;;17.60;99.90;;;;;;4991663;28;20069;-74
2021/04/25 10:52:37;;;;;;;22.88;15.32;;;17.50;99.90;;;;;;4996776;28;20491;-75
2021/04/25 10:55:16;;;;;;;23.35;15.30;;;17.60;99.90;;;;;;5014184;28;20029;-71
2021/04/25 10:57:54;;;;;;;23.52;15.60;;;17.60;99.90;;;;;;5009274;28;20026;-73
2021/04/25 11:00:32;;;;;;;27.45;15.55;;;17.60;99.90;;;;;;5013782;28;20072;-72
2021/04/25 11:03:07;;;;;;;17.95;13.73;;;17.60;99.90;;;;;;5013886;28;20119;-72
2021/04/25 11:05:36;;;;;;;20.50;15.80;;;17.60;99.90;;;;;;4998003;28;20030;-73
2021/04/25 11:08:17;;;;;;;21.00;15.60;;;17.70;99.90;;;;;;5004804;28;20308;-73
2021/04/25 11:10:49;;;;;;;23.02;14.77;;;17.80;99.90;;;;;;5011963;28;20526;-73
2021/04/25 11:13:33;;;;;;;21.55;14.05;;;17.90;99.90;;;;;;4996575;28;20518;-73
2021/04/25 11:16:01;;;;;;;17.65;12.27;;;18.00;99.90;;;;;;5013670;28;20037;-73
2021/04/25 11:18:55;;;;;;;15.80;11.07;;;18.10;99.90;;;;;;5011876;28;20045;-73
2021/04/25 11:21:35;;;;;;;16.15;10.38;;;18.20;99.90;;;;;;4998864;28;20025;-73
2021/04/25 11:24:03;;;;;;;15.68;11.20;;;18.20;99.90;;;;;;5014397;28;20022;-72
2021/04/25 11:29:15;;;;;;;29.42;14.15;;;18.10;99.90;;;;;;5012992;28;20026;-73
2021/04/25 11:31:53;;;;;;;22.83;13.55;;;17.90;99.90;;;;;;5005487;28;20420;-72
2021/04/25 11:34:25;;;;;;;21.00;12.43;;;18.10;99.90;;;;;;4999099;28;20016;-73
2021/04/25 11:37:13;;;;;;;19.70;13.05;;;18.20;99.90;;;;;;5012804;28;20026;-73
2021/04/25 11:39:44;;;;;;;23.90;12.73;;;18.20;99.90;;;;;;5012711;28;20049;-73
2021/04/25 11:42:23;;;;;;;24.55;15.45;;;18.30;99.90;;;;;;5013574;28;20088;-73
2021/04/25 11:44:49;;;;;;;22.92;17.90;;;18.30;99.90;;;;;;5013186;28;20110;-74
2021/04/25 11:47:17;;;;;;;29.77;18.10;;;18.30;99.90;;;;;;5012192;28;20547;-74
2021/04/25 11:49:53;;;;;;;18.42;13.35;;;18.20;99.90;;;;;;5010678;28;21868;-73
2021/04/25 11:52:28;;;;;;;21.88;16.08;;;18.10;99.90;;;;;;5012637;28;20053;-73
2021/04/25 11:55:12;;;;;;;19.77;14.73;;;18.10;99.90;;;;;;5013105;28;20026;-73
2021/04/25 11:57:40;;;;;;;15.25;13.18;;;18.30;99.90;;;;;;5008926;28;20451;-73
2021/04/25 12:00:41;;;;;;;19.48;15.95;;;18.20;99.90;;;;;;4999990;28;20101;-73
2021/04/25 12:03:07;;;;;;;19.58;13.65;;;18.30;99.90;;;;;;4941340;29;20213;-73
2021/04/25 12:05:39;;;;;;;18.17;16.05;;;18.10;99.90;;;;;;4980628;28;20587;-74
2021/04/25 12:08:14;;;;;;;22.45;12.05;;;18.20;99.90;;;;;;4993189;28;20048;-74
2021/04/25 12:10:50;;;;;;;19.23;13.55;;;18.30;99.90;;;;;;4997718;28;20491;-73
2021/04/25 12:13:16;;;;;;;16.42;14.02;;;18.20;99.90;;;;;;5005293;28;20057;-74
2021/04/25 12:15:48;;;;;;;20.33;15.10;;;18.20;99.90;;;;;;5005507;28;20014;-73
2021/04/25 12:18:36;;;;;;;19.05;13.82;;;18.30;99.90;;;;;;5005497;28;20017;-74
2021/04/25 12:21:07;;;;;;;19.95;12.15;;;18.30;99.90;;;;;;4990323;28;20030;-73
2021/04/25 12:23:48;;;;;;;16.45;11.88;;;18.40;99.90;;;;;;4995311;28;20026;-72
2021/04/25 12:26:15;;;;;;;19.30;13.50;;;18.60;99.90;;;;;;5007614;28;20037;-71
2021/04/25 12:28:44;;;;;;;18.17;11.68;;;18.60;99.90;;;;;;5009396;28;20041;-73
2021/04/25 12:31:12;;;;;;;19.92;12.23;;;18.60;99.90;;;;;;5009565;28;20025;-72
2021/04/25 12:33:48;;;;;;;24.75;13.55;;;18.60;99.90;;;;;;5010738;28;20060;-73
2021/04/25 12:36:16;;;;;;;25.15;14.68;;;18.70;99.90;;;;;;5012759;28;20018;-73